Metar Cercanos

 

LEPA - Palma De Mallorc, Spain
Distance from station: ONO 38km
Actualización: Fri, 28-Jan-2022 6:00am CET
Niebla, Cubierto
Niebla, Cubierto
 Viento del ENE
Viento: ENE 4 km/h
Temperatura: 4°C
Rocío: 3°C
Humedad: 93%
Barómetro: 1029 hPa
Resumen: Niebla
Clouds: Cubierto
Visibility: 0 km
Cloud details: Cubierto 30 m
2022/01/28 05:00 LEPA 280500Z 06002KT 0050 R24L/0400D R24R/0400U FG VV001 04/03 Q1029 NOSIG
LEMH - Mahon/Menorca Is, Spain
Distance from station: ENE 105km
Actualización: Fri, 28-Jan-2022 6:00am CET
Despejado
Despejado
 Viento del NO
Viento: NO 11 km/h
Temperatura: 7°C
Sensación frio: 5°C
Rocío: 6°C
Humedad: 93%
Barómetro: 1029 hPa
Resumen: Despejado
Visibility: greater than 10 km
2022/01/28 05:00 LEMH 280500Z 32006KT CAVOK 07/06 Q1029
 
LEIB - Ibiza/Es Codola, Spain
Distance from station: OSO 165km
Actualización: Fri, 28-Jan-2022 6:00am CET
Despejado
Despejado
 Viento del calm
Viento: Calma
Temperatura: 4°C
Rocío: 0°C
Humedad: 75%
Barómetro: 1029 hPa
Resumen: Despejado
Visibility: greater than 10 km
2022/01/28 05:00 LEIB 280500Z 00000KT CAVOK 04/00 Q1029 NOSIG
LEBL - Barcelona Airpor, Spain
Distance from station: NNO 225km
Actualización: Fri, 28-Jan-2022 6:00am CET
Despejado
Despejado
 Viento del NO
Viento: NO 22 km/h
Temperatura: 4°C
Sensación frio: -1°C
Rocío: -2°C
Humedad: 65%
Barómetro: 1029 hPa
Resumen: Despejado
Visibility: greater than 10 km
2022/01/28 05:00 LEBL 280500Z 32012KT CAVOK 04/M02 Q1029 NOSIG
 
LEVC - Valencia (civ/Mi, Spain
Distance from station: NO 188km
Actualización: Fri, 28-Jan-2022 6:00am CET
Despejado
Despejado
 Viento del O
Viento: O 7 km/h
Temperatura: 1°C
Sensación frio: -2°C
Rocío: -2°C
Humedad: 81%
Barómetro: 1030 hPa
Resumen: Despejado
Visibility: greater than 10 km
2022/01/28 05:00 LEVC 280500Z 28004KT 250V310 CAVOK 01/M02 Q1030 NOSIG
LEGE - Gerona/Costa Bra, Spain
Distance from station: N 276km
Actualización: Fri, 28-Jan-2022 6:00am CET
Parcialmente nuboso
Parcialmente nuboso
 Viento del O
Viento: O 4 km/h
Temperatura: -3°C
Rocío: -3°C
Humedad: 100%
Barómetro: 1028 hPa
Clouds: Parcialmente nuboso
Visibility: 9 km
2022/01/28 05:00 LEGE 280500Z 26002KT 9000 NSC M03/M03 Q1028
 
LEAL - Alicante/El Alte, Spain
Distance from station: OSO 344km
Actualización: Fri, 28-Jan-2022 6:00am CET
Few Clouds
Few Clouds
 Viento del N
Viento: N 9 km/h
Temperatura: 7°C
Sensación frio: 6°C
Rocío: 6°C
Humedad: 93%
Barómetro: 1030 hPa
Clouds: Few Clouds
Visibility: 10 km
Cloud details: Few Clouds 427 m
2022/01/28 05:00 LEAL 280500Z 35005KT 9999 FEW014 07/06 Q1030 NOSIG
LEAM - Almeria Airport, Spain
Distance from station: SSO 56km
Actualización: Fri, 28-Jan-2022 6:00am CET
Despejado
Despejado
 Viento del NNO
Viento: NNO 11 km/h
Temperatura: 11°C
Rocío: 5°C
Humedad: 67%
Barómetro: 1027 hPa
Resumen: Despejado
Visibility: greater than 10 km
2022/01/28 05:00 LEAM 280500Z 34006KT 300V020 CAVOK 11/05 Q1027
 
LEZG - Zaragoza (mil/Ci, Spain
Distance from station: NO 431km
Actualización: Fri, 28-Jan-2022 6:00am CET
Despejado
Despejado
 Viento del ONO
Viento: ONO 7 km/h
Temperatura: 2°C
Sensación frio: 0°C
Rocío: -2°C
Humedad: 75%
Barómetro: 1031 hPa
Resumen: Despejado
Visibility: greater than 10 km
2022/01/28 05:00 LEZG 280500Z 30004KT 260V340 CAVOK 02/M02 Q1031
LEMD - Madrid/Barajas, Spain
Distance from station: ONO 234km
Actualización: Fri, 28-Jan-2022 6:00am CET
Despejado
Despejado
 Viento del N
Viento: N 4 km/h
Temperatura: -3°C
Rocío: -7°C
Humedad: 74%
Barómetro: 1030 hPa
Resumen: Despejado
Visibility: greater than 10 km
2022/01/28 05:00 LEMD 280500Z 01002KT CAVOK M03/M07 Q1030 NOSIG
 
LEGR - Granada Airport, Spain
Distance from station: OSO 62km
Actualización: Fri, 28-Jan-2022 6:00am CET
Despejado
Despejado
 Viento del SSE
Viento: SSE 9 km/h
Temperatura: 2°C
Sensación frio: -1°C
Rocío: 1°C
Humedad: 93%
Barómetro: 1026 hPa
Resumen: Despejado
Visibility: greater than 10 km
2022/01/28 05:00 LEGR 280500Z 16005KT CAVOK 02/01 Q1026
LEMG - Malaga (civ/Mil), Spain
Distance from station: OSO 227km
Actualización: Fri, 28-Jan-2022 6:00am CET
Few Clouds
Few Clouds
 Viento del O
Viento: O 15 km/h
Temperatura: 10°C
Sensación frio: 8°C
Rocío: 6°C
Humedad: 76%
Barómetro: 1026 hPa
Clouds: Few Clouds
Visibility: 10 km
Cloud details: Few Clouds 2134 m
2022/01/28 05:00 LEMG 280500Z 26008KT 9999 FEW070 10/06 Q1026 NOSIG
 
LEZL - Sevilla (civ/Mil, Spain
Distance from station: S 318km
Actualización: Fri, 28-Jan-2022 6:00am CET
Despejado
Despejado
 Viento del ENE
Viento: ENE 20 km/h
Temperatura: 10°C
Sensación frio: 7°C
Rocío: 3°C
Humedad: 62%
Barómetro: 1025 hPa
Resumen: Despejado
Visibility: greater than 10 km
2022/01/28 05:00 LEZL 280500Z 06011KT CAVOK 10/03 Q1025 NOSIG
LEVT - Vitoria, Spain
Distance from station: NO 226km
Actualización: Fri, 28-Jan-2022 6:13am CET
Mist, Muy nuboso
Mist, Muy nuboso
 Viento del calm
Viento: Calma
Temperatura: -2°C
Rocío: -2°C
Humedad: 100%
Barómetro: 1034 hPa
Resumen: Mist
Clouds: Muy nuboso
Visibility: 4 km
Cloud details: Muy nuboso 305 m
2022/01/28 05:13 LEVT 280513Z 00000KT 3500 BR BKN010 M02/M02 Q1034
 
LEBB - Bilbao/Sondica, Spain
Distance from station: NNO 235km
Actualización: Fri, 28-Jan-2022 6:00am CET
Muy nuboso
Muy nuboso
 Viento del varies
Viento: varies 2 km/h
Temperatura: 6°C
Rocío: 5°C
Humedad: 93%
Barómetro: 1036 hPa
Clouds: Muy nuboso
Visibility: 10 km
Cloud details: Muy nuboso 732 m
2022/01/28 05:00 LEBB 280500Z VRB01KT 9999 BKN024 06/05 Q1036 NOSIG
LESO - San Sebastian/Fu, Spain
Distance from station: N 231km
Actualización: Fri, 28-Jan-2022 6:00am CET
Muy nuboso
Muy nuboso
 Viento del S
Viento: S 6 km/h
Temperatura: 6°C
Rocío: 4°C
Humedad: 87%
Barómetro: 1035 hPa
Clouds: Muy nuboso
Visibility: 10 km
Cloud details: Muy nuboso 762 m
2022/01/28 05:00 LESO 280500Z 18003KT 140V230 9999 BKN025 06/04 Q1035
 
LEVD - Valladolid(Mil/C, Spain
Distance from station: ONO 239km
Actualización: Fri, 28-Jan-2022 6:00am CET
Despejado
Despejado
 Viento del E
Viento: E 11 km/h
Temperatura: -2°C
Sensación frio: -6°C
Rocío: -7°C
Humedad: 69%
Barómetro: 1030 hPa
Resumen: Despejado
Visibility: greater than 10 km
2022/01/28 05:00 LEVD 280500Z AUTO 10006KT 070V140 CAVOK M02/M07 Q1030
LESA - Salamanca (civ/M, Spain
Distance from station: ONO 349km
Actualización: Fri, 28-Jan-2022 6:00am CET
Despejado
Despejado
 Viento del calm
Viento: Calma
Temperatura: -3°C
Rocío: -6°C
Humedad: 80%
Barómetro: 1030 hPa
Clouds: Despejado
Visibility: 9 km
2022/01/28 05:00 LESA 280500Z AUTO 00000KT 9000 NCD M03/M06 Q1030
 
LEXJ - Santander/Paraya, Spain
Distance from station: NNO 247km
Actualización: Fri, 28-Jan-2022 6:00am CET
Cubierto
Cubierto
 Viento del SSO
Viento: SSO 6 km/h
Temperatura: 5°C
Rocío: 4°C
Humedad: 93%
Barómetro: 1036 hPa
Clouds: Cubierto
Visibility: 10 km
Cloud details: Cubierto 671 m
2022/01/28 05:00 LEXJ 280500Z 20003KT 120V270 9999 OVC022 05/04 Q1036
LEAS - Asturias/Aviles, Spain
Distance from station: NO 214km
Actualización: Fri, 28-Jan-2022 6:00am CET
Cubierto
Cubierto
 Viento del ESE
Viento: ESE 11 km/h
Temperatura: 7°C
Sensación frio: 5°C
Rocío: 5°C
Humedad: 87%
Barómetro: 1035 hPa
Clouds: Cubierto
Visibility: 10 km
Cloud details: Cubierto 549 m
2022/01/28 05:00 LEAS 280500Z AUTO 11006KT 060V160 9999 OVC018 07/05 Q1035
 
LECO - La Coruna/Alvedr, Spain
Distance from station: ONO 222km
Actualización: Fri, 28-Jan-2022 6:00am CET
Despejado
Despejado
 Viento del varies
Viento: varies 2 km/h
Temperatura: 2°C
Rocío: 1°C
Humedad: 93%
Barómetro: 1032 hPa
Resumen: Despejado
Visibility: greater than 10 km
2022/01/28 05:00 LECO 280500Z VRB01KT CAVOK 02/01 Q1032 NOSIG
LEVX - Vigo/Peinador, Spain
Distance from station: O 214km
Actualización: Fri, 28-Jan-2022 6:00am CET
Despejado
Despejado
 Viento del SO
Viento: SO 17 km/h
Temperatura: 5°C
Sensación frio: 2°C
Rocío: 3°C
Humedad: 87%
Barómetro: 1030 hPa
Resumen: Despejado
Visibility: greater than 10 km
2022/01/28 05:00 LEVX 280500Z 23009KT CAVOK 05/03 Q1030 NOSIG